createdAt,value
2018-07-25T00:00:32.993Z,6.47
2018-07-25T00:03:01.738Z,6.77
2018-07-25T00:05:30.466Z,6.10
2018-07-25T00:07:58.893Z,6.97
2018-07-25T00:10:32.840Z,7.10
2018-07-25T00:13:01.517Z,8.70
2018-07-25T00:15:30.323Z,6.50
2018-07-25T00:17:58.684Z,7.40
2018-07-25T00:20:27.486Z,5.83
2018-07-25T00:22:56.250Z,6.17
2018-07-25T00:25:25.120Z,5.47
2018-07-25T00:27:53.880Z,7.20
2018-07-25T00:30:22.726Z,6.20
2018-07-25T00:32:51.444Z,8.23
2018-07-25T00:35:20.199Z,6.13
2018-07-25T00:37:48.945Z,6.27
2018-07-25T00:40:17.681Z,8.50
2018-07-25T00:42:46.593Z,8.67
2018-07-25T00:45:15.323Z,6.23
2018-07-25T00:47:44.075Z,5.93
2018-07-25T00:50:12.858Z,8.80
2018-07-25T00:52:41.599Z,8.83
2018-07-25T00:55:09.986Z,7.07
2018-07-25T00:57:38.758Z,6.43
2018-07-25T01:00:07.532Z,7.33
2018-07-25T01:02:36.220Z,6.10
2018-07-25T01:05:05.192Z,5.70
2018-07-25T01:07:33.960Z,6.40
2018-07-25T01:10:02.747Z,6.40
2018-07-25T01:12:31.466Z,6.77
2018-07-25T01:15:00.221Z,7.30
2018-07-25T01:17:28.901Z,7.73
2018-07-25T01:19:57.629Z,8.27
2018-07-25T01:22:26.327Z,5.80
2018-07-25T01:24:55.073Z,7.80
2018-07-25T01:27:23.797Z,6.30
2018-07-25T01:29:52.552Z,7.80
2018-07-25T01:32:21.345Z,5.63
2018-07-25T01:34:50.066Z,6.40
2018-07-25T01:37:18.807Z,6.87
2018-07-25T01:39:47.558Z,6.03
2018-07-25T01:42:16.340Z,6.23
2018-07-25T01:44:45.142Z,7.57
2018-07-25T01:47:13.860Z,6.60
2018-07-25T01:49:42.740Z,7.43
2018-07-25T01:52:11.514Z,8.20
2018-07-25T01:54:40.259Z,9.90
2018-07-25T01:57:09.016Z,9.10
2018-07-25T01:59:37.741Z,7.17
2018-07-25T02:02:06.555Z,10.47
2018-07-25T02:04:35.391Z,9.80
2018-07-25T02:07:04.195Z,10.77
2018-07-25T02:09:32.963Z,10.47
2018-07-25T02:12:01.795Z,9.20
2018-07-25T02:14:30.577Z,9.50
2018-07-25T02:17:00.064Z,10.90
2018-07-25T02:19:28.805Z,8.97
2018-07-25T02:21:57.514Z,9.47
2018-07-25T02:24:26.339Z,11.13
2018-07-25T02:26:55.156Z,10.37
2018-07-25T02:29:23.874Z,11.90
2018-07-25T02:31:52.548Z,11.17
2018-07-25T02:34:22.350Z,10.73
2018-07-25T02:36:52.427Z,10.63
2018-07-25T02:39:21.234Z,9.43
2018-07-25T02:41:49.963Z,12.20
2018-07-25T02:44:18.693Z,10.47
2018-07-25T02:46:47.407Z,9.80
2018-07-25T02:49:16.173Z,10.90
2018-07-25T02:51:45.012Z,12.97
2018-07-25T02:54:13.765Z,12.17
2018-07-25T02:56:42.501Z,12.00
2018-07-25T02:59:11.378Z,11.00
2018-07-25T03:01:40.040Z,13.50
2018-07-25T03:04:08.903Z,12.43
2018-07-25T03:06:37.678Z,10.20
2018-07-25T03:09:08.364Z,10.13
2018-07-25T03:11:37.317Z,11.57
2018-07-25T03:14:06.150Z,9.33
2018-07-25T03:16:35.005Z,11.30
2018-07-25T03:19:03.726Z,9.97
2018-07-25T03:21:32.046Z,9.93
2018-07-25T03:24:00.745Z,14.73
2018-07-25T03:26:29.450Z,13.57
2018-07-25T03:28:58.202Z,11.80
2018-07-25T03:31:27.028Z,10.30
2018-07-25T03:33:55.677Z,10.40
2018-07-25T03:36:24.467Z,11.17
2018-07-25T03:38:53.196Z,10.47
2018-07-25T03:41:21.958Z,10.63
2018-07-25T03:43:50.722Z,10.33
2018-07-25T03:46:19.458Z,10.33
2018-07-25T03:48:48.224Z,9.77
2018-07-25T03:51:16.957Z,12.87
2018-07-25T03:53:45.969Z,9.73
2018-07-25T03:56:14.799Z,10.17
2018-07-25T03:58:43.541Z,10.67
2018-07-25T04:01:12.248Z,9.20
2018-07-25T04:03:40.966Z,9.67
2018-07-25T04:06:09.777Z,10.00
2018-07-25T04:08:38.526Z,8.97
2018-07-25T04:11:07.332Z,10.30
2018-07-25T04:13:36.111Z,9.80
2018-07-25T04:16:04.930Z,10.93
2018-07-25T04:18:33.290Z,8.73
2018-07-25T04:21:02.091Z,10.30
2018-07-25T04:23:30.842Z,10.57
2018-07-25T04:25:59.600Z,9.80
2018-07-25T04:28:28.327Z,8.00
2018-07-25T04:30:57.159Z,8.87
2018-07-25T04:33:25.873Z,8.33
2018-07-25T04:35:54.586Z,10.23
2018-07-25T04:38:23.329Z,8.60
2018-07-25T04:40:52.166Z,11.57
2018-07-25T04:43:20.927Z,8.33
2018-07-25T04:45:49.286Z,9.83
2018-07-25T04:48:18.038Z,9.87
2018-07-25T04:50:46.806Z,10.80
2018-07-25T04:53:15.150Z,10.83
2018-07-25T04:55:43.905Z,12.70
2018-07-25T04:58:12.584Z,10.97
2018-07-25T05:00:41.301Z,9.33
2018-07-25T05:03:10.125Z,10.20
2018-07-25T05:05:38.883Z,8.67
2018-07-25T05:08:07.627Z,10.70
2018-07-25T05:10:36.385Z,9.13
2018-07-25T05:13:05.155Z,9.87
2018-07-25T05:15:33.881Z,9.97
2018-07-25T05:18:02.742Z,9.97
2018-07-25T05:20:31.469Z,9.70
2018-07-25T05:23:00.201Z,10.30
2018-07-25T05:25:28.982Z,9.13
2018-07-25T05:27:57.776Z,10.27
2018-07-25T05:30:26.564Z,9.70
2018-07-25T05:32:55.314Z,10.53
2018-07-25T05:35:24.018Z,10.57
2018-07-25T05:37:52.814Z,12.50
2018-07-25T05:40:21.575Z,10.40
2018-07-25T05:42:50.347Z,15.80
2018-07-25T05:45:18.967Z,15.07
2018-07-25T05:47:47.899Z,10.10
2018-07-25T05:50:16.717Z,10.87
2018-07-25T05:52:45.388Z,11.37
2018-07-25T05:55:14.045Z,9.73
2018-07-25T05:57:42.846Z,13.70
2018-07-25T06:00:11.614Z,13.07
2018-07-25T06:02:40.389Z,11.93
2018-07-25T06:05:09.042Z,13.90
2018-07-25T06:07:37.805Z,14.90
2018-07-25T06:10:06.764Z,17.47
2018-07-25T06:12:35.439Z,19.00
2018-07-25T06:15:04.681Z,13.57
2018-07-25T06:17:33.453Z,14.03
2018-07-25T06:20:02.181Z,16.43
2018-07-25T06:22:30.999Z,15.33
2018-07-25T06:24:59.711Z,17.37
2018-07-25T06:27:28.448Z,15.93
2018-07-25T06:29:57.207Z,16.43
2018-07-25T06:32:25.963Z,15.43
2018-07-25T06:34:54.698Z,14.70
2018-07-25T06:37:23.348Z,21.20
2018-07-25T06:39:52.108Z,17.27
2018-07-25T06:42:20.826Z,16.77
2018-07-25T06:44:49.648Z,16.13
2018-07-25T06:47:18.347Z,15.20
2018-07-25T06:49:47.072Z,14.80
2018-07-25T06:52:15.786Z,14.70
2018-07-25T06:54:44.522Z,15.63
2018-07-25T06:57:13.386Z,13.97
2018-07-25T06:59:41.993Z,13.63
2018-07-25T07:02:11.901Z,13.77
2018-07-25T07:04:40.651Z,14.43
2018-07-25T07:07:09.505Z,14.17
2018-07-25T07:09:38.190Z,12.43
2018-07-25T07:12:07.101Z,14.87
2018-07-25T07:14:35.839Z,12.30
2018-07-25T07:17:04.540Z,17.63
2018-07-25T07:19:32.894Z,13.50
2018-07-25T07:22:01.540Z,12.43
2018-07-25T07:24:30.234Z,15.57
2018-07-25T07:26:58.924Z,12.30
2018-07-25T07:29:27.564Z,14.37
2018-07-25T07:31:56.420Z,13.30
2018-07-25T07:34:25.094Z,12.73
2018-07-25T07:36:53.917Z,12.23
2018-07-25T07:39:22.666Z,13.70
2018-07-25T07:41:51.363Z,12.60
2018-07-25T07:44:20.112Z,12.47
2018-07-25T07:46:48.829Z,13.77
2018-07-25T07:49:17.507Z,10.80
2018-07-25T07:51:46.183Z,12.97
2018-07-25T07:54:14.953Z,13.77
2018-07-25T07:56:43.681Z,11.73
2018-07-25T07:59:12.382Z,13.27
2018-07-25T08:01:41.166Z,13.30
2018-07-25T08:04:09.928Z,11.07
2018-07-25T08:06:38.807Z,12.53
2018-07-25T08:09:10.432Z,12.67
2018-07-25T08:11:39.359Z,12.63
2018-07-25T08:14:08.094Z,12.53
2018-07-25T08:16:36.763Z,11.43
2018-07-25T08:19:05.565Z,14.23
2018-07-25T08:21:34.265Z,9.47
2018-07-25T08:24:03.049Z,13.07
2018-07-25T08:26:31.788Z,14.43
2018-07-25T08:29:00.565Z,13.10
2018-07-25T08:31:29.313Z,12.20
2018-07-25T08:33:58.038Z,11.47
2018-07-25T08:36:26.833Z,10.40
2018-07-25T08:38:55.612Z,11.60
2018-07-25T08:41:24.350Z,10.43
2018-07-25T08:43:53.143Z,11.47
2018-07-25T08:46:22.062Z,11.57
2018-07-25T08:48:50.792Z,10.63
2018-07-25T08:51:19.566Z,10.40
2018-07-25T08:53:48.417Z,10.73
2018-07-25T08:56:17.209Z,11.27
2018-07-25T08:58:45.938Z,8.50
2018-07-25T09:01:14.400Z,8.70
2018-07-25T09:03:43.034Z,9.57
2018-07-25T09:06:11.864Z,10.97
2018-07-25T09:08:40.737Z,12.73
2018-07-25T09:11:09.492Z,7.57
2018-07-25T09:13:38.232Z,9.53
2018-07-25T09:16:06.832Z,8.87
2018-07-25T09:18:35.534Z,8.63
2018-07-25T09:21:04.311Z,8.33
2018-07-25T09:23:32.982Z,8.30
2018-07-25T09:26:01.771Z,9.07
2018-07-25T09:28:30.601Z,10.77
2018-07-25T09:30:59.322Z,8.10
2018-07-25T09:33:28.164Z,8.87
2018-07-25T09:35:56.908Z,8.03
2018-07-25T09:38:25.676Z,8.20
2018-07-25T09:40:54.101Z,10.67
2018-07-25T09:43:22.777Z,6.90
2018-07-25T09:45:51.515Z,10.63
2018-07-25T09:48:20.325Z,9.47
2018-07-25T09:50:49.013Z,9.13
2018-07-25T09:53:17.770Z,9.23
2018-07-25T09:55:46.506Z,13.10
2018-07-25T09:58:15.290Z,9.43
2018-07-25T10:00:48.893Z,9.77
2018-07-25T10:03:18.258Z,8.57
2018-07-25T10:05:47.175Z,9.53
2018-07-25T10:08:16.773Z,12.13
2018-07-25T10:10:45.906Z,8.13
2018-07-25T10:13:14.720Z,9.70
2018-07-25T10:15:43.503Z,9.93
2018-07-25T10:18:12.332Z,10.83
2018-07-25T10:20:41.117Z,9.47
2018-07-25T10:23:09.846Z,9.60
2018-07-25T10:25:38.677Z,7.87
2018-07-25T10:28:07.785Z,8.90
2018-07-25T10:30:36.626Z,9.87
2018-07-25T10:33:05.767Z,10.10
2018-07-25T10:35:34.389Z,9.43
2018-07-25T10:38:03.279Z,10.43
2018-07-25T10:40:31.977Z,7.07
2018-07-25T10:43:00.695Z,9.60
2018-07-25T10:45:29.427Z,8.90
2018-07-25T10:47:58.088Z,11.12
2018-07-25T10:50:26.843Z,10.03
2018-07-25T10:52:55.589Z,8.35
2018-07-25T10:55:24.386Z,10.38
2018-07-25T10:57:53.439Z,10.53
2018-07-25T11:00:22.326Z,10.28
2018-07-25T11:02:51.067Z,10.03
2018-07-25T11:05:19.900Z,9.40
2018-07-25T11:07:48.644Z,9.18
2018-07-25T11:10:17.392Z,9.15
2018-07-25T11:12:46.180Z,9.10
2018-07-25T11:15:14.898Z,8.33
2018-07-25T11:17:43.668Z,11.63
2018-07-25T11:20:12.587Z,10.30
2018-07-25T11:22:41.377Z,10.13
2018-07-25T11:25:10.159Z,10.15
2018-07-25T11:27:38.899Z,13.75
2018-07-25T11:30:07.739Z,9.20
2018-07-25T11:32:36.663Z,8.33
2018-07-25T11:35:05.576Z,10.72
2018-07-25T11:37:34.255Z,8.08
2018-07-25T11:40:02.935Z,8.50
2018-07-25T11:42:31.420Z,10.08
2018-07-25T11:45:00.168Z,8.18
2018-07-25T11:47:28.873Z,8.70
2018-07-25T11:49:57.722Z,7.60
2018-07-25T11:52:26.482Z,8.63
2018-07-25T11:54:55.219Z,8.33
2018-07-25T11:57:24.906Z,8.03
2018-07-25T11:59:53.581Z,7.65
2018-07-25T12:02:22.738Z,7.60
2018-07-25T12:04:51.450Z,7.42
2018-07-25T12:07:20.205Z,9.00
2018-07-25T12:09:48.926Z,10.08
2018-07-25T12:12:17.714Z,8.40
2018-07-25T12:14:46.394Z,7.12
2018-07-25T12:17:16.117Z,7.37
2018-07-25T12:19:44.905Z,9.53
2018-07-25T12:22:13.642Z,8.03
2018-07-25T12:24:42.413Z,7.03
2018-07-25T12:27:11.096Z,6.70
2018-07-25T12:29:39.890Z,8.93
2018-07-25T12:32:08.662Z,9.58
2018-07-25T12:34:37.377Z,7.45
2018-07-25T12:37:06.202Z,6.90
2018-07-25T12:39:34.996Z,7.47
2018-07-25T12:42:03.832Z,8.35
2018-07-25T12:44:32.581Z,8.95
2018-07-25T12:47:01.362Z,5.80
2018-07-25T12:49:30.128Z,7.60
2018-07-25T12:51:58.886Z,7.75
2018-07-25T12:54:27.704Z,7.10
2018-07-25T12:56:56.499Z,6.55
2018-07-25T12:59:25.336Z,11.55
2018-07-25T13:01:54.140Z,8.55
2018-07-25T13:04:22.852Z,8.30
2018-07-25T13:06:51.609Z,8.65
2018-07-25T13:09:20.355Z,8.10
2018-07-25T13:11:49.111Z,8.08
2018-07-25T13:14:17.853Z,8.53
2018-07-25T13:16:46.654Z,7.53
2018-07-25T13:19:15.436Z,8.13
2018-07-25T13:21:44.241Z,9.43
2018-07-25T13:24:13.069Z,7.08
2018-07-25T13:26:42.002Z,8.38
2018-07-25T13:29:10.792Z,8.10
2018-07-25T13:31:39.647Z,6.90
2018-07-25T13:34:08.544Z,6.37
2018-07-25T13:36:37.914Z,9.28
2018-07-25T13:39:08.274Z,8.05
2018-07-25T13:41:37.057Z,8.43
2018-07-25T13:44:05.893Z,7.80
2018-07-25T13:46:34.625Z,9.30
2018-07-25T13:49:03.369Z,8.15
2018-07-25T13:51:32.125Z,9.53
2018-07-25T13:54:00.941Z,9.28
2018-07-25T13:56:29.799Z,7.37
2018-07-25T13:58:58.526Z,9.95
2018-07-25T14:01:27.267Z,6.90
2018-07-25T14:03:56.036Z,8.70
2018-07-25T14:06:24.866Z,7.15
2018-07-25T14:08:53.713Z,7.47
2018-07-25T14:11:22.477Z,9.00
2018-07-25T14:13:51.206Z,13.28
2018-07-25T14:16:19.978Z,8.10
2018-07-25T14:18:48.782Z,8.80
2018-07-25T14:21:17.654Z,9.13
2018-07-25T14:23:46.541Z,7.70
2018-07-25T14:26:14.908Z,8.80
2018-07-25T14:28:43.831Z,8.58
2018-07-25T14:31:12.489Z,9.00
2018-07-25T14:33:41.279Z,8.38
2018-07-25T14:36:10.189Z,7.58
2018-07-25T14:38:38.885Z,8.28
2018-07-25T14:41:07.720Z,8.48
2018-07-25T14:43:36.511Z,7.60
2018-07-25T14:46:05.693Z,7.75
2018-07-25T14:48:34.493Z,8.80
2018-07-25T14:51:03.336Z,8.90
2018-07-25T14:53:32.036Z,7.37
2018-07-25T14:56:00.880Z,9.30
2018-07-25T14:58:29.700Z,9.40
2018-07-25T15:00:58.452Z,7.58
2018-07-25T15:03:27.136Z,10.03
2018-07-25T15:05:55.512Z,9.43
2018-07-25T15:08:24.205Z,8.45
2018-07-25T15:10:52.941Z,6.47
2018-07-25T15:13:21.735Z,10.55
2018-07-25T15:15:50.461Z,8.63
2018-07-25T15:18:19.227Z,8.43
2018-07-25T15:20:47.960Z,8.78
2018-07-25T15:24:19.791Z,7.67
2018-07-25T15:26:48.506Z,12.33
2018-07-25T15:29:17.323Z,9.03
2018-07-25T15:34:14.932Z,7.55
2018-07-25T15:36:49.916Z,8.40
2018-07-25T15:39:21.004Z,8.48
2018-07-25T15:41:50.491Z,11.00
2018-07-25T15:44:20.240Z,10.72
2018-07-25T15:46:49.074Z,11.30
2018-07-25T15:49:17.444Z,11.15
2018-07-25T15:51:46.482Z,9.73
2018-07-25T15:54:15.510Z,13.55
2018-07-25T15:56:44.487Z,11.28
2018-07-25T15:59:13.209Z,12.43
2018-07-25T16:01:42.016Z,10.20
2018-07-25T16:04:10.767Z,8.88
2018-07-25T16:06:39.584Z,9.68
2018-07-25T16:09:09.681Z,10.60
2018-07-25T16:11:38.783Z,10.80
2018-07-25T16:14:07.595Z,9.05
2018-07-25T16:16:36.399Z,8.58
2018-07-25T16:19:05.441Z,8.15
2018-07-25T16:21:34.202Z,8.88
2018-07-25T16:24:02.642Z,8.23
2018-07-25T16:26:31.450Z,8.35
2018-07-25T16:29:01.742Z,7.65
2018-07-25T16:31:30.474Z,9.55
2018-07-25T16:33:59.226Z,7.35
2018-07-25T16:36:28.081Z,9.30
2018-07-25T16:38:56.859Z,7.65
2018-07-25T16:41:25.628Z,9.00
2018-07-25T16:43:54.403Z,9.93
2018-07-25T16:46:23.351Z,8.18
2018-07-25T16:48:52.139Z,7.65
2018-07-25T16:51:20.963Z,8.13
2018-07-25T16:53:49.755Z,8.60
2018-07-25T16:56:18.493Z,8.30
2018-07-25T16:58:47.255Z,8.60
2018-07-25T17:01:15.862Z,7.80
2018-07-25T17:03:44.666Z,8.10
2018-07-25T17:06:13.433Z,8.60
2018-07-25T17:08:42.240Z,7.00
2018-07-25T17:11:11.027Z,7.37
2018-07-25T17:13:39.783Z,6.53
2018-07-25T17:16:08.882Z,8.10
2018-07-25T17:18:37.711Z,9.55
2018-07-25T17:21:06.932Z,7.28
2018-07-25T17:23:35.698Z,8.63
2018-07-25T17:26:04.464Z,9.13
2018-07-25T17:28:33.217Z,8.23
2018-07-25T17:31:01.966Z,7.15
2018-07-25T17:33:30.698Z,7.25
2018-07-25T17:35:59.490Z,7.25
2018-07-25T17:38:28.011Z,7.15
2018-07-25T17:40:56.696Z,7.72
2018-07-25T17:43:24.941Z,13.20
2018-07-25T17:45:53.620Z,8.20
2018-07-25T17:48:22.443Z,8.85
2018-07-25T17:50:51.219Z,12.40
2018-07-25T17:53:19.989Z,8.53
2018-07-25T17:55:48.719Z,10.88
2018-07-25T17:58:17.479Z,7.97
2018-07-25T18:00:46.307Z,8.05
2018-07-25T18:03:15.067Z,8.58
2018-07-25T18:05:43.706Z,6.45
2018-07-25T18:08:12.470Z,6.50
2018-07-25T18:10:41.254Z,7.67
2018-07-25T18:13:15.296Z,6.30
2018-07-25T18:15:44.140Z,8.13
2018-07-25T18:18:13.014Z,7.35
2018-07-25T18:20:41.681Z,10.10
2018-07-25T18:23:10.531Z,8.10
2018-07-25T18:25:39.311Z,6.73
2018-07-25T18:28:08.199Z,7.03
2018-07-25T18:30:36.990Z,6.73
2018-07-25T18:33:06.127Z,7.20
2018-07-25T18:35:35.062Z,7.90
2018-07-25T18:38:03.856Z,7.83
2018-07-25T18:40:32.923Z,9.70
2018-07-25T18:43:01.746Z,8.37
2018-07-25T18:45:30.644Z,7.70
2018-07-25T18:47:59.436Z,7.00
2018-07-25T18:50:28.266Z,10.87
2018-07-25T18:52:57.310Z,8.57
2018-07-25T18:55:26.200Z,7.10
2018-07-25T18:57:54.985Z,7.30
2018-07-25T19:00:23.936Z,7.33
2018-07-25T19:02:52.601Z,7.17
2018-07-25T19:05:25.493Z,6.77
2018-07-25T19:07:54.404Z,7.57
2018-07-25T19:10:23.103Z,10.33
2018-07-25T19:12:52.105Z,7.77
2018-07-25T19:15:26.484Z,9.40
2018-07-25T19:17:55.261Z,8.13
2018-07-25T19:20:24.650Z,15.00
2018-07-25T19:22:53.821Z,8.07
2018-07-25T19:25:22.873Z,10.20
2018-07-25T19:27:52.377Z,9.30
2018-07-25T19:30:21.544Z,9.53
2018-07-25T19:32:51.169Z,7.97
2018-07-25T19:35:20.101Z,6.47
2018-07-25T19:37:48.914Z,9.27
2018-07-25T19:40:17.662Z,10.27
2018-07-25T19:42:46.648Z,12.67
2018-07-25T19:45:15.457Z,9.10
2018-07-25T19:47:44.132Z,12.23
2018-07-25T19:50:13.071Z,8.50
2018-07-25T19:52:41.439Z,10.07
2018-07-25T19:55:10.409Z,9.47
2018-07-25T19:57:39.487Z,11.30
2018-07-25T20:00:08.319Z,8.40
2018-07-25T20:02:37.120Z,8.70
2018-07-25T20:05:07.524Z,7.03
2018-07-25T20:07:36.625Z,7.57
2018-07-25T20:10:05.875Z,11.77
2018-07-25T20:12:35.090Z,11.53
2018-07-25T20:15:09.376Z,10.10
2018-07-25T20:17:38.194Z,8.47
2018-07-25T20:20:07.538Z,10.23
2018-07-25T20:22:36.327Z,8.77
2018-07-25T20:25:06.211Z,8.47
2018-07-25T20:27:35.339Z,8.20
2018-07-25T20:30:04.690Z,9.83
2018-07-25T20:32:33.276Z,8.10
2018-07-25T20:35:02.072Z,9.70
2018-07-25T20:37:30.811Z,8.50
2018-07-25T20:39:59.707Z,7.57
2018-07-25T20:42:28.614Z,6.90
2018-07-25T20:44:57.402Z,11.00
2018-07-25T20:47:25.759Z,10.10
2018-07-25T20:49:54.501Z,7.70
2018-07-25T20:52:23.358Z,8.40
2018-07-25T20:54:52.053Z,8.47
2018-07-25T20:57:21.045Z,13.33
2018-07-25T20:59:49.833Z,14.27
2018-07-25T21:02:18.800Z,6.87
2018-07-25T21:04:47.567Z,9.57
2018-07-25T21:07:16.330Z,9.33
2018-07-25T21:09:44.998Z,9.43
2018-07-25T21:12:13.712Z,10.77
2018-07-25T21:14:42.428Z,11.83
2018-07-25T21:17:11.503Z,9.67
2018-07-25T21:19:40.190Z,8.33
2018-07-25T21:22:08.856Z,7.80
2018-07-25T21:24:37.544Z,9.70
2018-07-25T21:27:06.397Z,9.07
2018-07-25T21:29:35.127Z,7.83
2018-07-25T21:32:03.891Z,10.13
2018-07-25T21:34:32.620Z,8.53
2018-07-25T21:37:01.347Z,7.87
2018-07-25T21:39:30.076Z,7.27
2018-07-25T21:41:58.858Z,7.60
2018-07-25T21:44:27.580Z,9.20
2018-07-25T21:46:56.333Z,8.60
2018-07-25T21:49:25.116Z,7.63
2018-07-25T21:51:53.844Z,8.43
2018-07-25T21:54:22.566Z,6.63
2018-07-25T21:56:51.266Z,9.17
2018-07-25T21:59:20.031Z,8.63
2018-07-25T22:01:49.300Z,6.37
2018-07-25T22:04:17.975Z,7.83
2018-07-25T22:06:46.747Z,7.63
2018-07-25T22:09:15.516Z,7.37
2018-07-25T22:11:44.200Z,6.63
2018-07-25T22:14:13.014Z,6.90
2018-07-25T22:16:41.694Z,10.47
2018-07-25T22:19:10.026Z,8.07
2018-07-25T22:21:38.770Z,9.83
2018-07-25T22:24:07.604Z,6.43
2018-07-25T22:26:36.352Z,7.23
2018-07-25T22:29:05.116Z,8.17
2018-07-25T22:31:33.773Z,7.77
2018-07-25T22:34:02.631Z,8.23
2018-07-25T22:36:31.367Z,6.20
2018-07-25T22:39:00.008Z,8.20
2018-07-25T22:41:28.691Z,6.40
2018-07-25T22:43:57.392Z,7.47
2018-07-25T22:46:26.168Z,8.60
2018-07-25T22:48:54.861Z,9.17
2018-07-25T22:51:23.627Z,7.30
2018-07-25T22:53:52.281Z,6.73
2018-07-25T22:56:21.003Z,7.00
2018-07-25T22:58:49.680Z,8.73
2018-07-25T23:01:18.443Z,10.17
2018-07-25T23:03:47.191Z,10.57
2018-07-25T23:06:15.989Z,8.13
2018-07-25T23:08:44.385Z,6.57
2018-07-25T23:11:13.112Z,8.63
2018-07-25T23:13:45.976Z,7.40
2018-07-25T23:16:15.024Z,8.43
2018-07-25T23:18:43.849Z,8.20
2018-07-25T23:21:12.222Z,7.53
2018-07-25T23:23:40.987Z,7.27
2018-07-25T23:26:09.743Z,8.33
2018-07-25T23:28:38.465Z,7.10
2018-07-25T23:31:07.239Z,10.80
2018-07-25T23:33:36.027Z,8.40
2018-07-25T23:36:04.669Z,9.73
2018-07-25T23:38:33.437Z,7.47
2018-07-25T23:41:02.197Z,7.60
2018-07-25T23:43:30.885Z,7.77
2018-07-25T23:45:59.757Z,9.60
2018-07-25T23:48:28.525Z,8.37
2018-07-25T23:50:57.329Z,7.67
2018-07-25T23:53:26.065Z,8.47
2018-07-25T23:55:54.835Z,8.90
2018-07-25T23:58:24.145Z,9.07
